الصفحة الرئيسية
METAR-TAF:

METAR-TAF

مطار :

NWS Office

Majuro, جزر مارشال

دائرة عرض: 07-05N, خط طول: 171-12E, ارتفاع: 4 متر

مراقبة الطقس الحالي

تاريخ ووقت الإصدار 44 دقيقة قبل الساعة 16:50UTC
ريح 10 عقدة من الشرق/الشمال الشرقي
درجة الحرارة 28°درجة مئوية
الرطوبة 74%
ضغط 1006 hPa
الرؤية: 24.1 كم
غيوم متفرقة على ارتفاع 1500 قدم
غيوم متفرقة على ارتفاع 5000 قدم
غيوم مفككة على ارتفاع 30000 قدم

METAR: PKMR 151650Z 06010KT 15SM SCT015 SCT050 BKN300 28/23 A2971 RMK SHRAB25E35 SLP061 T02800230

زمن: 05:34 (17:34 UTC)


TAF: مفقودة

أرصاد الطقس والتوقعات من أكثر من 4000 مطار (تقارير الطقس للمطار METAR والتنبؤ بالطقس بالمطارTAF).

المحطات المتاحة هي النقط الصفراء والحمراء على الخريطة.

حرك المؤشر فوق النقطة لمعرفة اسم المحطة.

ثم انقر لمعرفة أرصاد وتوقعات الطقس.

لتغيير الخارطة: اضغط على الأزرار الخضراء مع رمز الصليب الأسود للتكبير. على الزر الأخضر مع شرطة للتصغير، أو على الأسهم الخضراء للخرائط المجاورة.


METAR-TAF: